Terminal Aerodrome Forecast
Issued by NWS

Home | Current Version | Previous Version | Graphics & Text | Print | Product List | Glossary On
Versions: 1 2 3 4 5 6 7 8 9 10 11 12 13 14
000
FTUS43 KICT 171740
TAFRSL
TAF
KRSL 171740Z 1718/1818 22017KT P6SM SKC
     FM172000 29009KT P6SM BKN200
     FM172200 35009KT P6SM SKC
     FM180200 01013KT P6SM SKC
     FM180600 36017G26KT P6SM BKN025
     FM180900 35025G30KT P6SM OVC017=

USA.gov is the U.S. government's official web portal to all federal, state and local government web resources and services.